Time;durP1;ratioP1;P1;durP2;ratioP2;P2;SDS_P1;SDS_P2;PMS_P1;PMS_P2;Temp;Humidity;BMP_temperature;BMP_pressure;BME280_temperature;BME280_humidity;BME280_pressure;Samples;Min_cycle;Max_cycle;Signal;HPM_P1;HPM_P2
2021/12/14 00:01:21;;;;;;;10.40;9.35;;;8.40;99.90;;;;;;5013275;28;19979;-71
2021/12/14 00:03:50;;;;;;;14.00;10.75;;;8.30;99.90;;;;;;5012956;28;20052;-70
2021/12/14 00:06:19;;;;;;;13.52;9.90;;;8.10;99.90;;;;;;5014715;28;20062;-72
2021/12/14 00:08:53;;;;;;;13.65;10.25;;;8.10;99.90;;;;;;5014270;28;20053;-70
2021/12/14 00:11:33;;;;;;;12.40;10.38;;;8.30;99.90;;;;;;5014977;28;20045;-70
2021/12/14 00:14:26;;;;;;;14.77;10.80;;;8.20;99.90;;;;;;5010306;28;20042;-72
2021/12/14 00:16:57;;;;;;;12.30;9.85;;;8.30;99.90;;;;;;5014734;28;20057;-71
2021/12/14 00:19:26;;;;;;;12.63;10.50;;;8.20;99.90;;;;;;5017580;28;20439;-72
2021/12/14 00:21:54;;;;;;;12.32;10.35;;;8.20;99.90;;;;;;5017137;28;20060;-70
2021/12/14 00:24:24;;;;;;;14.73;11.43;;;8.10;99.90;;;;;;5019030;28;20100;-70
2021/12/14 00:26:56;;;;;;;13.00;10.30;;;8.10;99.90;;;;;;5014622;28;20045;-70
2021/12/14 00:29:25;;;;;;;12.20;10.02;;;8.30;99.90;;;;;;5019049;28;20374;-70
2021/12/14 00:31:53;;;;;;;15.68;11.30;;;8.10;99.90;;;;;;5015660;28;20103;-70
2021/12/14 00:34:33;;;;;;;15.30;11.05;;;8.20;99.90;;;;;;5016294;28;20051;-71
2021/12/14 00:36:59;;;;;;;14.55;10.68;;;8.30;99.90;;;;;;5018445;28;20089;-70
2021/12/14 00:39:24;;;;;;;13.25;10.90;;;8.30;99.90;;;;;;5017812;28;20088;-71
2021/12/14 00:41:50;;;;;;;18.58;11.25;;;8.20;99.90;;;;;;5018558;28;20088;-69
2021/12/14 00:44:16;;;;;;;14.88;11.60;;;8.20;99.90;;;;;;5017218;28;20050;-69
2021/12/14 00:46:41;;;;;;;13.43;11.13;;;8.00;99.90;;;;;;5016932;28;20072;-70
2021/12/14 00:49:10;;;;;;;15.38;11.95;;;8.10;99.90;;;;;;5017815;28;21119;-70
2021/12/14 00:51:36;;;;;;;15.55;11.75;;;8.20;99.90;;;;;;5016851;28;20057;-70
2021/12/14 00:54:04;;;;;;;16.05;12.13;;;8.20;99.90;;;;;;5016294;28;20053;-72
2021/12/14 00:56:33;;;;;;;15.05;12.27;;;8.20;99.90;;;;;;5001913;28;20141;-71
2021/12/14 00:59:00;;;;;;;14.73;12.23;;;8.20;99.90;;;;;;5015844;28;20042;-70
2021/12/14 01:01:30;;;;;;;17.10;12.30;;;8.30;99.90;;;;;;5017169;28;20049;-73
2021/12/14 01:03:59;;;;;;;15.32;12.13;;;8.30;99.90;;;;;;5000025;28;20495;-70
2021/12/14 01:06:28;;;;;;;16.10;12.65;;;8.20;99.90;;;;;;5017471;28;20397;-71
2021/12/14 01:08:55;;;;;;;14.75;12.13;;;8.20;99.90;;;;;;5016269;28;20477;-70
2021/12/14 01:11:37;;;;;;;17.27;13.45;;;8.30;99.90;;;;;;5011515;28;20164;-72
2021/12/14 01:14:15;;;;;;;18.17;13.75;;;8.10;99.90;;;;;;5012253;28;20072;-70
2021/12/14 01:17:14;;;;;;;17.77;13.13;;;8.20;99.90;;;;;;5017404;28;20119;-72
2021/12/14 01:19:43;;;;;;;18.60;13.70;;;8.30;99.90;;;;;;5017362;28;20045;-71
2021/12/14 01:25:21;;;;;;;17.65;14.73;;;8.10;99.90;;;;;;5014640;28;20050;-70
2021/12/14 01:28:07;;;;;;;18.58;13.30;;;8.30;99.90;;;;;;5017030;28;20068;-71
2021/12/14 01:30:42;;;;;;;17.13;13.90;;;8.40;99.90;;;;;;5016017;28;20050;-71
2021/12/14 01:33:13;;;;;;;19.27;14.20;;;8.20;99.90;;;;;;5012470;28;20400;-71
2021/12/14 01:35:41;;;;;;;18.60;14.45;;;8.30;99.90;;;;;;5001227;28;20042;-70
2021/12/14 01:38:20;;;;;;;18.85;14.15;;;8.20;99.90;;;;;;5016809;28;20057;-72
2021/12/14 01:40:53;;;;;;;19.50;14.20;;;8.30;99.90;;;;;;5015836;28;20038;-70
2021/12/14 01:43:30;;;;;;;19.23;14.88;;;8.30;99.90;;;;;;5005823;28;20112;-70
2021/12/14 01:45:59;;;;;;;20.15;14.70;;;8.20;99.90;;;;;;5021379;28;20049;-71
2021/12/14 01:48:25;;;;;;;19.52;14.10;;;8.20;99.90;;;;;;5017174;28;20095;-70
2021/12/14 01:50:57;;;;;;;18.73;14.27;;;8.20;99.90;;;;;;5012979;28;20508;-71
2021/12/14 01:53:23;;;;;;;19.63;14.90;;;8.30;99.90;;;;;;5034013;28;20461;-70
2021/12/14 01:55:53;;;;;;;20.17;14.35;;;8.10;99.90;;;;;;5017087;28;20095;-71
2021/12/14 01:58:23;;;;;;;22.63;15.30;;;8.50;99.90;;;;;;5015775;28;20053;-70
2021/12/14 02:00:54;;;;;;;19.10;14.48;;;8.30;99.90;;;;;;5016201;28;20053;-70
2021/12/14 02:03:28;;;;;;;19.65;13.85;;;8.20;99.90;;;;;;4997709;28;20076;-72
2021/12/14 02:05:54;;;;;;;16.58;13.55;;;8.20;99.90;;;;;;5013031;28;20120;-71
2021/12/14 02:08:28;;;;;;;17.75;14.00;;;8.00;99.90;;;;;;5013050;28;20069;-69
2021/12/14 02:10:56;;;;;;;19.45;15.00;;;8.20;99.90;;;;;;4997357;28;20107;-69
2021/12/14 02:13:29;;;;;;;19.58;15.10;;;8.10;99.90;;;;;;5016949;28;20141;-71
2021/12/14 02:15:56;;;;;;;19.92;15.20;;;8.20;99.90;;;;;;5012236;28;20049;-70
2021/12/14 02:18:26;;;;;;;21.30;15.88;;;8.30;99.90;;;;;;4999965;28;20049;-71
2021/12/14 02:20:55;;;;;;;19.70;14.68;;;8.20;99.90;;;;;;5013293;28;20574;-70
2021/12/14 02:23:21;;;;;;;18.17;14.50;;;8.20;99.90;;;;;;5033038;28;20156;-71
2021/12/14 02:25:49;;;;;;;20.33;15.48;;;8.10;99.90;;;;;;5012858;28;20053;-70
2021/12/14 02:28:18;;;;;;;23.10;16.27;;;8.10;99.90;;;;;;4996792;28;20045;-71
2021/12/14 02:30:47;;;;;;;21.90;15.38;;;8.30;99.90;;;;;;5015696;28;20167;-72
2021/12/14 02:33:18;;;;;;;21.77;15.20;;;8.20;99.90;;;;;;5015100;28;20504;-72
2021/12/14 02:35:46;;;;;;;21.35;15.57;;;8.30;99.90;;;;;;5031494;28;20112;-72
2021/12/14 02:38:12;;;;;;;21.27;15.40;;;8.20;99.90;;;;;;5013092;28;20057;-71
2021/12/14 02:40:54;;;;;;;21.77;15.77;;;8.30;99.90;;;;;;5012517;28;20045;-71
2021/12/14 02:43:45;;;;;;;23.13;16.30;;;8.40;99.90;;;;;;5016231;28;20085;-70
2021/12/14 02:46:26;;;;;;;22.55;16.45;;;8.30;99.90;;;;;;4999871;28;20424;-71
2021/12/14 02:48:55;;;;;;;21.75;15.43;;;8.10;99.90;;;;;;5016057;28;20057;-72
2021/12/14 02:51:25;;;;;;;20.95;15.02;;;8.30;99.90;;;;;;4997203;28;20490;-71
2021/12/14 02:53:55;;;;;;;23.88;16.30;;;8.30;99.90;;;;;;5013803;28;20497;-72
2021/12/14 02:56:24;;;;;;;21.70;16.25;;;8.30;99.90;;;;;;4996027;28;20481;-70
2021/12/14 02:58:58;;;;;;;21.35;16.17;;;8.20;99.90;;;;;;5013029;28;20046;-71
2021/12/14 03:01:24;;;;;;;22.20;16.17;;;8.30;99.90;;;;;;5013166;28;20049;-71
2021/12/14 03:03:49;;;;;;;24.48;16.45;;;8.30;99.90;;;;;;4996287;28;20128;-71
2021/12/14 03:06:20;;;;;;;22.63;17.67;;;8.20;99.90;;;;;;4997734;28;20243;-72
2021/12/14 03:08:57;;;;;;;24.48;16.65;;;8.10;99.90;;;;;;5016490;28;20072;-70
2021/12/14 03:11:24;;;;;;;26.20;17.67;;;8.20;99.90;;;;;;5014045;28;20049;-71
2021/12/14 03:13:51;;;;;;;23.58;17.65;;;8.30;99.90;;;;;;5015303;28;20067;-70
2021/12/14 03:16:30;;;;;;;23.83;16.60;;;8.10;99.90;;;;;;5011808;28;20053;-71
2021/12/14 03:18:59;;;;;;;24.48;16.60;;;8.20;99.90;;;;;;5015614;28;20056;-70
2021/12/14 03:21:29;;;;;;;22.00;16.35;;;8.30;99.90;;;;;;5012756;28;20045;-71
2021/12/14 03:24:00;;;;;;;26.30;18.35;;;8.20;99.90;;;;;;5014820;28;20128;-71
2021/12/14 03:26:30;;;;;;;24.90;17.23;;;8.30;99.90;;;;;;5031447;28;20053;-71
2021/12/14 03:28:59;;;;;;;27.92;18.00;;;8.20;99.90;;;;;;5015497;28;20054;-70
2021/12/14 03:31:27;;;;;;;23.48;17.60;;;8.20;99.90;;;;;;5032057;28;20111;-70
2021/12/14 03:34:12;;;;;;;30.15;18.83;;;8.10;99.90;;;;;;5013246;28;20053;-72
2021/12/14 03:36:44;;;;;;;24.60;17.65;;;8.30;99.90;;;;;;5015036;28;20103;-72
2021/12/14 03:39:17;;;;;;;24.60;18.80;;;8.30;99.90;;;;;;5013543;28;20057;-72
2021/12/14 03:41:46;;;;;;;24.63;17.58;;;8.20;99.90;;;;;;5015313;28;20057;-71
2021/12/14 03:44:21;;;;;;;29.13;20.13;;;8.20;99.90;;;;;;5014307;28;20405;-69
2021/12/14 03:46:53;;;;;;;27.17;18.38;;;8.10;99.90;;;;;;5011845;28;20131;-70
2021/12/14 03:49:22;;;;;;;25.02;18.20;;;8.20;99.90;;;;;;5015344;28;20346;-71
2021/12/14 03:51:49;;;;;;;25.73;19.30;;;8.10;99.90;;;;;;5032194;28;20053;-72
2021/12/14 03:54:16;;;;;;;28.65;18.63;;;8.00;99.90;;;;;;5019335;28;20553;-70
2021/12/14 03:56:42;;;;;;;28.75;20.25;;;8.10;99.90;;;;;;5017308;28;20049;-70
2021/12/14 03:59:08;;;;;;;28.60;19.88;;;8.20;99.90;;;;;;5018939;28;20037;-71
2021/12/14 04:01:38;;;;;;;30.70;21.13;;;8.20;99.90;;;;;;5017447;28;20129;-71
2021/12/14 04:04:16;;;;;;;28.15;18.98;;;8.10;99.90;;;;;;5018629;28;20089;-70
2021/12/14 04:06:42;;;;;;;29.50;20.75;;;8.20;99.90;;;;;;5017691;28;20053;-72
2021/12/14 04:09:11;;;;;;;30.70;19.92;;;8.00;99.90;;;;;;5017229;28;20083;-70
2021/12/14 04:11:37;;;;;;;29.10;20.70;;;8.10;99.90;;;;;;5018681;28;20120;-70
2021/12/14 04:14:03;;;;;;;29.27;20.50;;;8.00;99.90;;;;;;5017524;28;20132;-71
2021/12/14 04:16:29;;;;;;;33.28;20.92;;;8.10;99.90;;;;;;5016767;28;20461;-70
2021/12/14 04:18:57;;;;;;;28.40;19.98;;;8.10;99.90;;;;;;5019097;28;20076;-72
2021/12/14 04:21:23;;;;;;;32.05;21.55;;;8.10;99.90;;;;;;5017667;28;20057;-71
2021/12/14 04:23:51;;;;;;;30.38;21.05;;;8.10;99.90;;;;;;5002420;28;20061;-70
2021/12/14 04:26:17;;;;;;;30.10;20.40;;;8.00;99.90;;;;;;5015877;28;20096;-70
2021/12/14 04:28:48;;;;;;;34.20;20.63;;;8.00;99.90;;;;;;5018401;28;20085;-70
2021/12/14 04:31:15;;;;;;;30.38;21.08;;;8.00;99.90;;;;;;5003791;28;20054;-70
2021/12/14 04:33:43;;;;;;;32.05;21.58;;;7.90;99.90;;;;;;5019029;28;20436;-70
2021/12/14 04:36:11;;;;;;;30.70;20.67;;;7.90;99.90;;;;;;5033875;28;20505;-70
2021/12/14 04:38:48;;;;;;;29.95;21.55;;;8.00;99.90;;;;;;5054751;28;20057;-71
2021/12/14 04:52:22;;;;;;;30.88;20.45;;;8.00;99.90;;;;;;5036814;28;20048;-71
2021/12/14 04:55:22;;;;;;;33.15;22.77;;;8.00;99.90;;;;;;5054641;28;20060;-70
2021/12/14 04:57:49;;;;;;;32.83;22.58;;;8.10;99.90;;;;;;4956865;28;20071;-71
2021/12/14 05:00:29;;;;;;;32.30;21.23;;;8.00;99.90;;;;;;5050373;28;20049;-72
2021/12/14 05:02:57;;;;;;;32.35;21.95;;;8.10;99.90;;;;;;5044632;28;20049;-71
2021/12/14 05:05:28;;;;;;;28.73;21.08;;;7.90;99.90;;;;;;5034433;28;20054;-69
2021/12/14 05:10:52;;;;;;;33.75;21.65;;;8.10;99.90;;;;;;5037122;28;20056;-70
2021/12/14 05:13:25;;;;;;;31.20;21.88;;;8.10;99.90;;;;;;5038763;28;20369;-71
2021/12/14 05:15:51;;;;;;;30.33;21.73;;;8.00;99.90;;;;;;5018763;28;20551;-70
2021/12/14 05:18:16;;;;;;;34.03;21.45;;;7.90;99.90;;;;;;5054539;28;20060;-70
2021/12/14 05:20:45;;;;;;;30.52;21.60;;;8.00;99.90;;;;;;5051809;28;20489;-71
2021/12/14 05:23:13;;;;;;;31.20;22.15;;;8.00;99.90;;;;;;5053759;28;20045;-71
2021/12/14 05:25:39;;;;;;;34.20;22.63;;;8.00;99.90;;;;;;5048802;28;20448;-70
2021/12/14 05:28:08;;;;;;;33.13;22.42;;;8.10;99.90;;;;;;5039527;28;20051;-70
2021/12/14 05:30:40;;;;;;;32.17;22.55;;;8.00;99.90;;;;;;5049309;28;20045;-71
2021/12/14 05:33:16;;;;;;;37.42;24.80;;;8.00;99.90;;;;;;5037603;28;20052;-69
2021/12/14 05:35:45;;;;;;;36.75;24.02;;;8.10;99.90;;;;;;5035845;28;20496;-70
2021/12/14 05:38:15;;;;;;;33.22;23.27;;;8.00;99.90;;;;;;5036910;28;20143;-72
2021/12/14 05:41:08;;;;;;;36.13;23.63;;;8.00;99.90;;;;;;5036240;28;20049;-71
2021/12/14 05:43:31;;;;;;;36.70;23.88;;;8.00;99.90;;;;;;5036555;28;20063;-71
2021/12/14 05:46:01;;;;;;;39.47;25.17;;;7.90;99.90;;;;;;5029644;28;20434;-72
2021/12/14 05:48:30;;;;;;;34.92;24.05;;;8.00;99.90;;;;;;5036423;28;20583;-72
2021/12/14 05:50:59;;;;;;;35.03;23.98;;;7.90;99.90;;;;;;5033017;28;20052;-73
2021/12/14 05:53:29;;;;;;;36.67;24.08;;;7.90;99.90;;;;;;5036937;28;20530;-70
2021/12/14 05:56:05;;;;;;;35.30;24.20;;;7.80;99.90;;;;;;5035739;28;20116;-70
2021/12/14 05:58:31;;;;;;;37.95;25.73;;;8.10;99.90;;;;;;5036780;28;20080;-71
2021/12/14 06:01:12;;;;;;;35.63;24.63;;;8.10;99.90;;;;;;5050703;28;20437;-71
2021/12/14 06:03:46;;;;;;;38.28;25.55;;;8.00;99.90;;;;;;5020152;28;20411;-73
2021/12/14 06:06:16;;;;;;;40.50;26.55;;;7.90;99.90;;;;;;5035687;28;20151;-70
2021/12/14 06:08:42;;;;;;;38.95;25.83;;;8.00;99.90;;;;;;5035400;28;20061;-70
2021/12/14 06:11:22;;;;;;;39.70;25.88;;;7.90;99.90;;;;;;5032666;28;20452;-71
2021/12/14 06:13:48;;;;;;;39.63;25.90;;;8.30;99.90;;;;;;5015960;28;20104;-71
2021/12/14 06:16:33;;;;;;;38.88;25.45;;;7.90;99.90;;;;;;5020728;28;20440;-70
2021/12/14 06:19:17;;;;;;;39.08;26.10;;;7.90;99.90;;;;;;5034979;28;20473;-71
2021/12/14 06:21:43;;;;;;;39.85;27.00;;;8.00;99.90;;;;;;5034262;28;20477;-70
2021/12/14 06:24:10;;;;;;;42.50;27.92;;;7.90;99.90;;;;;;5036017;28;20067;-72
2021/12/14 06:26:40;;;;;;;42.08;27.45;;;7.90;99.90;;;;;;5034512;28;20080;-72
2021/12/14 06:29:12;;;;;;;42.88;27.52;;;7.80;99.90;;;;;;5036677;28;20056;-71
2021/12/14 06:31:39;;;;;;;48.25;30.73;;;7.90;99.90;;;;;;5034649;28;20052;-72
2021/12/14 06:34:16;;;;;;;44.70;29.13;;;8.00;99.90;;;;;;5036338;28;20084;-72
2021/12/14 06:37:04;;;;;;;44.10;28.55;;;7.90;99.90;;;;;;5034477;28;20500;-73
2021/12/14 06:39:58;;;;;;;47.60;30.42;;;7.90;99.90;;;;;;5034254;28;20449;-70
2021/12/14 06:42:24;;;;;;;43.97;28.80;;;8.20;99.90;;;;;;5034041;28;20056;-71
2021/12/14 06:44:49;;;;;;;47.00;28.95;;;7.90;99.90;;;;;;5036158;28;20064;-71
2021/12/14 06:47:15;;;;;;;48.10;29.98;;;7.90;99.90;;;;;;5033252;28;20052;-72
2021/12/14 06:49:41;;;;;;;44.83;28.13;;;8.00;99.90;;;;;;5034592;28;20045;-73
2021/12/14 06:52:09;;;;;;;44.78;27.98;;;7.90;99.90;;;;;;5031374;28;20045;-71
2021/12/14 06:54:35;;;;;;;47.03;29.38;;;8.00;99.90;;;;;;5033754;28;20107;-71
2021/12/14 06:57:03;;;;;;;44.45;29.75;;;7.80;99.90;;;;;;5036186;28;20041;-69
2021/12/14 06:59:32;;;;;;;48.25;28.90;;;8.00;99.90;;;;;;5040282;28;20469;-70
2021/12/14 07:02:01;;;;;;;48.38;31.17;;;7.90;99.90;;;;;;5035010;28;20071;-70
2021/12/14 07:04:33;;;;;;;48.08;28.85;;;7.90;99.90;;;;;;5035408;28;20527;-70
2021/12/14 07:07:03;;;;;;;46.80;29.92;;;8.00;99.90;;;;;;5035557;28;20132;-71
2021/12/14 07:09:33;;;;;;;44.90;28.15;;;7.90;99.90;;;;;;5034521;28;20049;-69
2021/12/14 07:12:18;;;;;;;46.25;29.92;;;8.10;99.90;;;;;;5034187;28;20103;-71
2021/12/14 07:14:58;;;;;;;52.40;33.38;;;8.00;99.90;;;;;;5035479;28;20055;-69
2021/12/14 07:17:29;;;;;;;51.45;29.92;;;8.00;99.90;;;;;;5031625;28;20098;-72
2021/12/14 07:19:58;;;;;;;46.25;29.83;;;8.10;99.90;;;;;;5034231;28;20079;-71
2021/12/14 07:22:30;;;;;;;48.67;30.83;;;7.90;99.90;;;;;;5018627;28;20432;-71
2021/12/14 07:25:16;;;;;;;50.40;30.77;;;7.80;99.90;;;;;;5035387;28;20048;-70
2021/12/14 07:27:44;;;;;;;49.53;30.30;;;8.10;99.90;;;;;;5034206;28;20049;-70
2021/12/14 07:30:12;;;;;;;49.95;31.75;;;8.00;99.90;;;;;;5035591;28;20124;-71
2021/12/14 07:32:39;;;;;;;48.55;30.85;;;8.10;99.90;;;;;;5062189;28;20052;-71
2021/12/14 07:35:21;;;;;;;49.20;31.17;;;7.90;99.90;;;;;;5051799;28;20076;-70
2021/12/14 07:37:48;;;;;;;48.00;30.17;;;8.10;99.90;;;;;;5051068;28;20087;-69
2021/12/14 07:40:14;;;;;;;46.58;30.60;;;8.50;99.90;;;;;;5053035;28;20053;-71
2021/12/14 07:42:40;;;;;;;50.33;31.35;;;8.00;99.90;;;;;;5034264;28;20041;-71
2021/12/14 07:45:07;;;;;;;50.13;31.40;;;8.10;99.90;;;;;;5021688;28;20053;-70
2021/12/14 07:47:33;;;;;;;50.55;31.73;;;8.30;99.90;;;;;;5034461;28;20408;-70
2021/12/14 07:49:59;;;;;;;50.40;31.05;;;8.00;99.90;;;;;;5034382;28;20040;-72
2021/12/14 07:52:35;;;;;;;53.03;33.15;;;8.00;99.90;;;;;;5033841;28;20408;-70
2021/12/14 07:55:15;;;;;;;49.88;32.75;;;8.10;99.90;;;;;;5034318;28;20049;-70
2021/12/14 07:57:40;;;;;;;52.22;32.05;;;8.10;99.90;;;;;;5034270;28;20124;-70
2021/12/14 08:00:29;;;;;;;51.95;31.40;;;8.10;99.90;;;;;;5050225;28;20128;-71
2021/12/14 08:02:58;;;;;;;54.03;32.45;;;8.10;99.90;;;;;;5032081;28;20049;-71
2021/12/14 08:05:37;;;;;;;54.63;32.47;;;8.10;99.90;;;;;;5024049;28;20052;-71
2021/12/14 08:08:17;;;;;;;51.63;31.52;;;8.10;99.90;;;;;;5014961;28;20129;-71
2021/12/14 08:11:29;;;;;;;49.60;31.15;;;8.20;99.90;;;;;;5027374;28;20041;-70
2021/12/14 08:13:58;;;;;;;50.22;31.77;;;8.10;99.90;;;;;;5031366;28;20104;-70
2021/12/14 08:16:24;;;;;;;54.35;31.15;;;8.10;99.90;;;;;;5016024;28;20041;-70
2021/12/14 08:18:51;;;;;;;55.35;32.20;;;7.90;99.90;;;;;;5034171;28;20107;-70
2021/12/14 08:21:23;;;;;;;48.92;30.25;;;8.10;99.90;;;;;;5034425;28;20041;-71
2021/12/14 08:23:54;;;;;;;54.15;31.65;;;8.20;99.90;;;;;;5017503;28;20048;-69
2021/12/14 08:26:34;;;;;;;53.17;32.00;;;7.90;99.90;;;;;;5033465;28;20135;-70
2021/12/14 08:29:03;;;;;;;61.85;36.92;;;8.00;99.90;;;;;;5034254;28;20045;-70
2021/12/14 08:31:52;;;;;;;51.42;31.90;;;8.00;99.90;;;;;;5032870;28;20072;-70
2021/12/14 08:34:22;;;;;;;57.65;33.28;;;8.00;99.90;;;;;;5034645;28;20473;-71
2021/12/14 08:36:59;;;;;;;56.08;32.55;;;8.10;99.90;;;;;;5033889;28;20459;-71
2021/12/14 08:39:38;;;;;;;53.90;32.53;;;8.10;99.90;;;;;;5037116;28;20443;-69
2021/12/14 08:42:38;;;;;;;53.40;33.08;;;8.10;99.90;;;;;;5037869;28;20049;-69
2021/12/14 08:45:26;;;;;;;50.30;31.30;;;8.10;99.90;;;;;;5011314;28;20135;-72
2021/12/14 08:48:06;;;;;;;53.70;31.88;;;8.10;99.90;;;;;;5020279;28;20452;-71
2021/12/14 08:50:39;;;;;;;52.60;31.60;;;8.10;99.90;;;;;;5018071;28;20065;-72
2021/12/14 08:53:08;;;;;;;51.53;31.60;;;8.10;99.90;;;;;;5017795;28;20046;-69
2021/12/14 08:55:36;;;;;;;52.75;31.33;;;8.10;99.90;;;;;;5018005;28;20061;-70
2021/12/14 08:58:03;;;;;;;48.63;31.35;;;8.10;99.90;;;;;;5017702;28;20049;-71
2021/12/14 09:00:36;;;;;;;49.05;30.48;;;;;;;;;;5021055;28;20361;-70
2021/12/14 09:03:08;;;;;;;;;;;8.20;99.90;;;;;;5037513;28;20053;-69
2021/12/14 09:05:44;;;;;;;46.63;29.00;;;8.20;99.90;;;;;;5036957;28;20036;-71
2021/12/14 09:08:10;;;;;;;43.45;29.38;;;8.20;99.90;;;;;;5021336;28;20059;-71
2021/12/14 09:10:38;;;;;;;46.50;30.35;;;8.20;99.90;;;;;;5036980;28;20057;-70
2021/12/14 09:13:10;;;;;;;45.95;30.63;;;8.20;99.90;;;;;;5037675;28;20408;-69
2021/12/14 09:15:55;;;;;;;48.83;30.20;;;8.20;99.90;;;;;;5037015;28;20124;-71
2021/12/14 09:18:23;;;;;;;48.33;30.70;;;8.30;99.90;;;;;;5037223;28;20149;-70
2021/12/14 09:21:02;;;;;;;46.05;29.35;;;8.30;99.90;;;;;;5037385;28;20053;-70
2021/12/14 09:23:33;;;;;;;48.13;30.13;;;8.30;99.90;;;;;;5036895;28;20091;-70
2021/12/14 09:26:03;;;;;;;45.10;29.10;;;8.30;99.90;;;;;;5036767;28;20064;-70
2021/12/14 09:28:30;;;;;;;45.75;30.77;;;8.30;99.90;;;;;;5053594;28;20450;-70
2021/12/14 09:31:00;;;;;;;48.58;30.27;;;8.30;99.90;;;;;;5036365;28;20080;-70
2021/12/14 09:33:28;;;;;;;42.95;28.27;;;8.30;99.90;;;;;;5036217;28;20056;-68
2021/12/14 09:35:56;;;;;;;49.53;30.20;;;8.40;99.90;;;;;;5033736;28;20068;-68
2021/12/14 09:38:31;;;;;;;45.80;30.00;;;8.40;99.90;;;;;;5063511;28;20061;-70
2021/12/14 09:40:59;;;;;;;45.67;30.80;;;8.40;99.90;;;;;;5035653;28;20067;-69
2021/12/14 09:43:25;;;;;;;46.83;31.50;;;8.50;99.90;;;;;;5036488;28;20056;-70
2021/12/14 09:45:56;;;;;;;45.90;30.30;;;8.50;99.90;;;;;;5035752;28;20103;-70
2021/12/14 09:48:37;;;;;;;42.65;28.65;;;8.50;99.90;;;;;;5000810;28;20140;-70
2021/12/14 09:51:12;;;;;;;46.83;30.43;;;8.50;99.90;;;;;;5026086;28;20045;-69
2021/12/14 09:53:42;;;;;;;45.05;29.13;;;8.50;99.90;;;;;;5036320;28;20090;-72
2021/12/14 09:56:11;;;;;;;48.42;30.30;;;8.60;99.90;;;;;;5052821;28;20048;-69
2021/12/14 09:58:41;;;;;;;44.97;29.65;;;8.50;99.90;;;;;;5036669;28;20431;-71
2021/12/14 10:01:23;;;;;;;45.45;29.25;;;8.60;99.90;;;;;;5052631;28;20059;-71
2021/12/14 10:03:54;;;;;;;43.90;28.75;;;8.50;99.90;;;;;;5047702;28;20049;-69
2021/12/14 10:06:25;;;;;;;46.63;29.20;;;8.50;99.90;;;;;;5035710;28;20362;-69
2021/12/14 10:08:59;;;;;;;47.45;30.33;;;8.50;99.90;;;;;;5035597;28;20120;-70
2021/12/14 10:11:47;;;;;;;51.45;28.23;;;8.50;99.90;;;;;;5036171;28;20067;-71
2021/12/14 10:14:15;;;;;;;46.33;28.58;;;8.50;99.90;;;;;;5019874;28;20048;-69
2021/12/14 10:16:41;;;;;;;45.95;28.15;;;8.50;99.90;;;;;;5035137;28;20053;-69
2021/12/14 10:19:17;;;;;;;48.22;28.50;;;8.50;99.90;;;;;;5036070;28;20080;-68
2021/12/14 10:21:59;;;;;;;42.88;28.13;;;8.50;99.90;;;;;;5027081;28;20056;-69
2021/12/14 10:24:25;;;;;;;37.97;26.15;;;8.50;99.90;;;;;;5035643;28;20166;-70
2021/12/14 10:26:58;;;;;;;45.33;28.48;;;8.60;99.90;;;;;;5026332;28;20544;-70
2021/12/14 10:29:28;;;;;;;40.85;26.65;;;8.60;99.90;;;;;;5035804;28;20053;-69
2021/12/14 10:32:03;;;;;;;47.00;26.25;;;8.60;99.90;;;;;;5019195;28;20164;-70
2021/12/14 10:34:38;;;;;;;45.28;27.98;;;8.60;99.90;;;;;;5035621;28;20495;-71
2021/12/14 10:37:15;;;;;;;40.50;27.33;;;8.60;99.90;;;;;;5035759;28;20450;-71
2021/12/14 10:42:41;;;;;;;42.47;26.42;;;8.60;99.90;;;;;;5028092;28;20049;-69
2021/12/14 10:45:14;;;;;;;42.72;27.00;;;8.60;99.90;;;;;;5031890;28;20159;-71
2021/12/14 10:47:41;;;;;;;43.67;26.40;;;8.60;99.90;;;;;;5048412;28;20061;-70
2021/12/14 10:50:12;;;;;;;42.20;27.40;;;8.60;99.90;;;;;;5032076;28;20068;-70
2021/12/14 10:52:42;;;;;;;46.00;27.20;;;8.50;99.90;;;;;;5032476;28;20124;-71
2021/12/14 10:55:11;;;;;;;45.50;27.05;;;8.50;99.90;;;;;;5035238;28;20048;-71
2021/12/14 10:57:37;;;;;;;47.67;27.45;;;8.40;99.90;;;;;;5030953;28;20191;-71
2021/12/14 11:00:27;;;;;;;44.88;27.75;;;8.40;99.90;;;;;;5035711;28;20084;-72
2021/12/14 11:02:53;;;;;;;47.17;27.42;;;8.40;99.90;;;;;;5034718;28;20138;-74
2021/12/14 11:05:20;;;;;;;47.63;28.13;;;8.40;99.90;;;;;;5035683;28;20134;-70
2021/12/14 11:07:48;;;;;;;51.00;29.13;;;8.40;99.90;;;;;;5032149;28;20054;-70
2021/12/14 11:10:20;;;;;;;50.35;27.65;;;8.40;99.90;;;;;;5044745;28;20049;-70
2021/12/14 11:12:50;;;;;;;50.22;27.38;;;8.40;99.90;;;;;;5008571;28;20055;-71
2021/12/14 11:15:23;;;;;;;52.90;29.38;;;8.40;99.90;;;;;;5018584;28;20041;-73
2021/12/14 11:18:08;;;;;;;49.50;27.63;;;8.40;99.90;;;;;;5033399;28;20095;-70
2021/12/14 11:20:57;;;;;;;53.63;28.45;;;8.40;99.90;;;;;;5041538;28;20501;-69
2021/12/14 11:23:33;;;;;;;48.75;29.27;;;8.50;99.90;;;;;;5034114;28;20064;-70
2021/12/14 11:26:06;;;;;;;51.40;28.50;;;8.50;99.90;;;;;;5035062;28;20152;-71
2021/12/14 11:28:54;;;;;;;47.67;28.25;;;8.50;99.90;;;;;;5034970;28;20060;-72
2021/12/14 11:31:34;;;;;;;49.75;27.42;;;8.50;99.90;;;;;;5032839;28;20052;-70
2021/12/14 11:34:16;;;;;;;47.92;27.45;;;8.50;99.90;;;;;;5034666;28;20045;-70
2021/12/14 11:36:54;;;;;;;51.53;28.38;;;8.60;99.90;;;;;;5016866;28;20064;-70
2021/12/14 11:39:25;;;;;;;48.60;28.92;;;8.60;99.90;;;;;;5006398;28;20056;-71
2021/12/14 11:41:58;;;;;;;48.40;27.60;;;8.60;99.90;;;;;;5031136;28;20049;-72
2021/12/14 11:44:32;;;;;;;47.92;27.58;;;8.60;99.90;;;;;;5034341;28;20511;-70
2021/12/14 11:46:58;;;;;;;44.33;27.17;;;8.60;99.90;;;;;;5014690;28;20496;-70
2021/12/14 11:49:37;;;;;;;52.17;29.65;;;8.60;99.90;;;;;;5030041;28;20045;-69
2021/12/14 11:52:04;;;;;;;47.45;26.40;;;8.60;99.90;;;;;;5033853;28;20167;-71
2021/12/14 11:54:43;;;;;;;43.47;26.35;;;8.60;99.90;;;;;;5034047;28;20049;-72
2021/12/14 11:57:10;;;;;;;41.00;24.83;;;8.60;99.90;;;;;;5034310;28;20075;-70
2021/12/14 11:59:36;;;;;;;43.53;25.60;;;;;;;;;;5017896;28;20058;-70
2021/12/14 12:02:04;;;;;;;40.47;24.45;;;8.60;99.90;;;;;;5033953;28;20056;-69
2021/12/14 12:04:36;;;;;;;36.33;23.27;;;8.60;99.90;;;;;;5034093;28;20111;-71
2021/12/14 12:09:41;;;;;;;35.53;22.00;;;8.60;99.90;;;;;;5034286;28;20133;-72
2021/12/14 12:12:09;;;;;;;40.25;22.05;;;8.60;99.90;;;;;;5034064;28;20041;-72
2021/12/14 12:15:07;;;;;;;36.63;21.38;;;8.60;99.90;;;;;;5031368;28;20056;-70
2021/12/14 12:17:47;;;;;;;38.58;22.42;;;8.60;99.90;;;;;;5036015;28;20041;-71
2021/12/14 12:20:19;;;;;;;35.35;20.85;;;8.60;99.90;;;;;;5037871;28;20049;-71
2021/12/14 12:22:57;;;;;;;34.17;20.50;;;8.70;99.90;;;;;;5037776;28;20568;-71
2021/12/14 12:25:40;;;;;;;32.33;19.90;;;8.60;99.90;;;;;;5037355;28;20053;-72
2021/12/14 12:28:15;;;;;;;;;;;8.70;99.90;;;;;;5037244;28;20559;-71
2021/12/14 12:30:49;;;;;;;32.60;20.08;;;8.60;99.90;;;;;;5021677;28;19943;-70
2021/12/14 12:33:39;;;;;;;34.72;20.23;;;8.70;99.90;;;;;;5037543;28;20045;-70
2021/12/14 12:36:35;;;;;;;35.25;20.77;;;8.70;99.90;;;;;;5021144;28;20041;-72
2021/12/14 12:39:15;;;;;;;35.15;20.23;;;8.70;99.90;;;;;;5034485;28;20044;-70
2021/12/14 12:41:51;;;;;;;34.47;21.10;;;8.70;99.90;;;;;;5030668;28;20413;-71
2021/12/14 12:44:21;;;;;;;35.88;21.33;;;8.70;99.90;;;;;;5037725;28;20123;-71
2021/12/14 12:46:54;;;;;;;33.20;20.88;;;8.70;99.90;;;;;;5036998;28;20060;-71
2021/12/14 12:49:30;;;;;;;31.10;19.48;;;8.70;99.90;;;;;;5021239;28;20380;-70
2021/12/14 12:52:16;;;;;;;34.70;20.88;;;8.70;99.90;;;;;;5037097;28;20067;-71
2021/12/14 12:55:02;;;;;;;35.90;20.55;;;8.70;99.90;;;;;;5035652;28;20063;-71
2021/12/14 12:57:39;;;;;;;37.90;21.02;;;8.70;99.90;;;;;;5053879;28;20044;-71
2021/12/14 13:00:35;;;;;;;38.83;21.92;;;8.70;99.90;;;;;;5036756;28;20052;-72
2021/12/14 13:03:09;;;;;;;36.33;20.73;;;8.80;99.90;;;;;;5046571;28;20077;-71
2021/12/14 13:05:46;;;;;;;37.85;22.52;;;8.80;99.90;;;;;;5038372;28;20056;-72
2021/12/14 13:08:16;;;;;;;37.38;21.20;;;8.80;99.90;;;;;;5032975;28;20064;-70
2021/12/14 13:11:03;;;;;;;38.88;21.67;;;8.80;99.90;;;;;;5037339;28;20052;-71
2021/12/14 13:13:36;;;;;;;39.97;21.80;;;8.80;99.90;;;;;;5037611;28;20049;-70
2021/12/14 13:16:39;;;;;;;38.47;21.58;;;8.80;99.90;;;;;;5037156;28;20052;-71
2021/12/14 13:19:11;;;;;;;35.80;21.15;;;8.80;99.90;;;;;;5037153;28;20056;-71
2021/12/14 13:22:04;;;;;;;40.58;21.27;;;8.80;99.90;;;;;;5037414;28;20068;-72
2021/12/14 13:24:37;;;;;;;37.80;21.27;;;8.80;99.90;;;;;;5026091;28;20054;-71
2021/12/14 13:27:09;;;;;;;41.00;22.08;;;8.80;99.90;;;;;;5017336;28;20042;-70
2021/12/14 13:29:40;;;;;;;40.03;21.50;;;8.90;99.90;;;;;;5017559;28;20072;-72